Terminal Aerodrome Forecast
Issued by NWS Wakefield, VA

Home | Current Version | Previous Version | Text Only | Print | Product List | Glossary On
Versions: 1 2 3 4 5 6 7 8 9 10 11 12 13 14
181
FTUS41 KAKQ 252320
TAFORF
TAF
KORF 252320Z 2600/2624 05010KT P6SM OVC013
     FM260400 05013G20KT P6SM OVC008
     FM260700 05014KT P6SM VCSH OVC008
     FM261200 04016G23KT P6SM OVC007
     FM261400 04017G24KT P6SM OVC010=

USA.gov is the U.S. government's official web portal to all federal, state and local government web resources and services.